Time;durP1;ratioP1;P1;durP2;ratioP2;P2;SDS_P1;SDS_P2;PMS_P1;PMS_P2;Temp;Humidity;BMP_temperature;BMP_pressure;BME280_temperature;BME280_humidity;BME280_pressure;Samples;Min_cycle;Max_cycle;Signal;HPM_P1;HPM_P2
2022/12/08 00:02:12;;;;;;;19.43;13.17;;;;;;;6.98;57.61;98379.91;7014069;28;20212;-81
2022/12/08 00:09:28;;;;;;;15.70;10.53;;;;;;;7.28;57.15;98392.09;7015583;28;20214;-81
2022/12/08 00:12:50;;;;;;;17.30;12.43;;;;;;;6.66;57.37;98399.13;7015925;28;20204;-83
2022/12/08 00:16:14;;;;;;;19.17;11.53;;;;;;;6.97;58.57;98383.59;7015166;28;20206;-81
2022/12/08 00:19:37;;;;;;;14.97;10.00;;;;;;;6.75;57.65;98381.94;7014106;28;20244;-81
2022/12/08 00:22:59;;;;;;;15.67;10.93;;;;;;;6.65;58.78;98384.09;7011073;28;20203;-80
2022/12/08 00:26:20;;;;;;;16.80;11.33;;;;;;;7.13;58.21;98377.13;7008925;28;20659;-80
2022/12/08 00:29:44;;;;;;;14.77;10.10;;;;;;;7.37;57.64;98385.56;7009285;28;20225;-80
2022/12/08 00:33:05;;;;;;;12.40;9.43;;;;;;;7.11;57.15;98358.56;7008647;28;20207;-80
2022/12/08 00:36:27;;;;;;;14.80;10.33;;;;;;;6.69;58.00;98369.31;7008034;28;20255;-80
2022/12/08 00:39:49;;;;;;;18.97;13.53;;;;;;;6.38;59.16;98367.94;7008361;28;20238;-80
2022/12/08 00:43:10;;;;;;;18.20;10.37;;;;;;;6.89;58.62;98369.50;7009173;28;20205;-81
2022/12/08 00:46:33;;;;;;;16.43;10.97;;;;;;;6.81;58.02;98337.47;7008872;28;20265;-79
2022/12/08 00:49:55;;;;;;;14.50;10.40;;;;;;;7.19;57.60;98361.09;7008326;28;20692;-80
2022/12/08 00:53:16;;;;;;;14.43;9.97;;;;;;;6.88;57.26;98312.41;7009125;28;20706;-80
2022/12/08 00:56:38;;;;;;;17.17;11.63;;;;;;;7.31;56.63;98350.66;7008163;28;20607;-80
2022/12/08 01:00:00;;;;;;;12.17;8.50;;;;;;;7.31;56.05;98348.00;7007843;28;20268;-80
2022/12/08 01:03:24;;;;;;;13.83;9.13;;;;;;;7.05;56.56;98342.41;7006538;28;20242;-81
2022/12/08 01:06:46;;;;;;;12.17;8.83;;;;;;;6.69;56.91;98355.06;7003832;28;20320;-81
2022/12/08 01:10:08;;;;;;;12.37;9.70;;;;;;;6.87;56.48;98356.28;7003261;28;20377;-80
2022/12/08 01:13:30;;;;;;;13.70;10.10;;;;;;;6.77;56.99;98363.81;7001809;28;20671;-81
2022/12/08 01:16:51;;;;;;;14.03;9.97;;;;;;;6.73;56.96;98359.03;7000834;28;20201;-79
2022/12/08 01:20:14;;;;;;;14.10;9.33;;;;;;;6.83;56.45;98356.88;7000863;28;20237;-77
2022/12/08 01:23:36;;;;;;;11.70;9.57;;;;;;;6.40;57.09;98336.44;7000939;28;20209;-78
2022/12/08 01:26:57;;;;;;;12.13;9.47;;;;;;;6.51;57.21;98368.91;7000490;28;20229;-78
2022/12/08 01:30:19;;;;;;;12.33;9.57;;;;;;;6.54;56.59;98352.47;6975011;28;20286;-79
2022/12/08 01:33:41;;;;;;;11.27;8.57;;;;;;;6.42;56.70;98363.88;6973027;28;20672;-79
2022/12/08 01:37:04;;;;;;;12.47;9.63;;;;;;;6.22;57.30;98357.47;6971780;28;20292;-79
2022/12/08 01:40:25;;;;;;;14.90;9.83;;;;;;;6.03;57.19;98369.59;6972466;28;20254;-78
2022/12/08 01:43:55;;;;;;;14.97;9.67;;;;;;;6.02;57.66;98367.91;6972913;28;20358;-79
2022/12/08 01:47:17;;;;;;;13.93;9.63;;;;;;;6.15;57.26;98361.91;6972103;28;20305;-79
2022/12/08 01:50:39;;;;;;;13.17;9.07;;;;;;;6.01;56.99;98373.47;6983103;28;20344;-79
2022/12/08 01:54:03;;;;;;;14.37;10.57;;;;;;;5.80;57.68;98366.22;6992566;28;20339;-76
2022/12/08 01:57:27;;;;;;;13.23;10.00;;;;;;;5.90;57.62;98361.38;6998404;28;20237;-76
2022/12/08 02:00:49;;;;;;;12.80;9.50;;;;;;;5.82;57.16;98332.06;6999154;28;20317;-76
2022/12/08 02:04:10;;;;;;;13.60;9.37;;;;;;;5.71;57.76;98345.06;7000524;28;20297;-76
2022/12/08 02:07:32;;;;;;;12.90;8.83;;;;;;;5.63;57.53;98326.44;6999863;28;20289;-75
2022/12/08 02:10:55;;;;;;;13.00;10.10;;;;;;;5.66;57.60;98326.88;7000275;28;20677;-76
2022/12/08 02:14:17;;;;;;;14.23;9.57;;;;;;;5.25;58.27;98341.72;6999956;28;20301;-76
2022/12/08 02:17:49;;;;;;;18.53;11.07;;;;;;;5.07;58.49;98337.75;6998968;28;20539;-76
2022/12/08 02:21:14;;;;;;;15.03;10.23;;;;;;;4.86;59.77;98333.13;7000166;28;20287;-76
2022/12/08 02:24:38;;;;;;;15.67;10.70;;;;;;;5.09;60.16;98335.72;7001296;28;20326;-76
2022/12/08 02:28:08;;;;;;;15.73;10.33;;;;;;;5.00;59.85;98339.47;7003893;28;20363;-76
2022/12/08 02:31:37;;;;;;;16.87;11.40;;;;;;;4.96;59.19;98324.84;7004730;28;20232;-78
2022/12/08 02:35:03;;;;;;;15.57;10.73;;;;;;;5.06;58.71;98328.91;7003963;28;20211;-78
2022/12/08 02:38:35;;;;;;;17.33;11.30;;;;;;;4.64;60.29;98303.75;7004237;28;20233;-78
2022/12/08 02:42:04;;;;;;;15.70;11.10;;;;;;;4.83;59.92;98297.94;7004410;28;20213;-78
2022/12/08 02:45:30;;;;;;;18.40;11.30;;;;;;;4.82;60.69;98320.28;7003827;28;20304;-79
2022/12/08 02:48:52;;;;;;;16.93;10.97;;;;;;;5.00;59.84;98304.75;7004082;28;20312;-78
2022/12/08 02:52:39;;;;;;;14.33;10.87;;;;;;;5.04;59.27;98312.25;7003902;28;20240;-79
2022/12/08 02:56:05;;;;;;;12.50;10.17;;;;;;;5.13;59.43;98313.00;7003516;28;20202;-79
2022/12/08 02:59:40;;;;;;;19.07;11.17;;;;;;;5.25;58.08;98285.59;7003796;28;20233;-78
2022/12/08 03:03:09;;;;;;;15.07;9.83;;;;;;;5.44;57.74;98302.94;7004151;28;20336;-78
2022/12/08 03:06:34;;;;;;;13.57;9.73;;;;;;;5.40;56.89;98298.97;7003065;28;20710;-76
2022/12/08 03:10:01;;;;;;;12.47;9.73;;;;;;;5.24;57.29;98281.28;7003285;28;20359;-76
2022/12/08 03:13:24;;;;;;;15.40;10.10;;;;;;;5.33;57.35;98290.03;7003551;28;20296;-75
2022/12/08 03:16:49;;;;;;;14.03;10.00;;;;;;;5.33;57.27;98287.38;7002842;28;20662;-76
2022/12/08 03:20:13;;;;;;;15.70;10.50;;;;;;;4.65;58.56;98290.25;7003296;28;20230;-75
2022/12/08 03:23:35;;;;;;;15.13;11.37;;;;;;;4.27;60.41;98259.22;7003438;28;20278;-76
2022/12/08 03:27:01;;;;;;;14.23;10.57;;;;;;;4.73;59.70;98287.47;7002704;28;20349;-76
2022/12/08 03:30:22;;;;;;;14.10;9.33;;;;;;;5.01;58.50;98274.38;7002824;28;20339;-76
2022/12/08 03:33:45;;;;;;;16.40;10.53;;;;;;;5.21;57.76;98284.34;7003570;28;20304;-76
2022/12/08 03:37:07;;;;;;;15.83;10.33;;;;;;;5.17;57.53;98274.19;7002316;28;20450;-76
2022/12/08 03:40:28;;;;;;;20.23;11.43;;;;;;;4.20;58.92;98284.13;7002620;28;20312;-76
2022/12/08 03:43:53;;;;;;;15.27;10.70;;;;;;;4.78;58.94;98276.28;7002636;28;20351;-76
2022/12/08 03:47:15;;;;;;;15.80;10.97;;;;;;;5.08;57.98;98270.78;7002193;28;20247;-76
2022/12/08 03:50:36;;;;;;;17.70;11.50;;;;;;;4.96;58.21;98266.09;7002946;28;20733;-75
2022/12/08 03:53:57;;;;;;;19.07;11.70;;;;;;;4.10;59.19;98264.84;7002261;28;20293;-76
2022/12/08 03:57:20;;;;;;;14.90;10.13;;;;;;;3.51;62.66;98269.03;7002075;28;20675;-75
2022/12/08 04:00:43;;;;;;;16.97;11.70;;;;;;;4.54;61.05;98263.16;7002030;28;20390;-75
2022/12/08 04:04:05;;;;;;;15.93;10.33;;;;;;;4.94;59.70;98255.56;7001941;28;20308;-75
2022/12/08 04:07:26;;;;;;;13.77;9.77;;;;;;;4.96;58.54;98260.75;7001368;28;20304;-76
2022/12/08 04:10:48;;;;;;;15.57;9.93;;;;;;;4.83;57.70;98245.34;7001541;28;20296;-75
2022/12/08 04:14:09;;;;;;;14.43;10.90;;;;;;;4.19;58.84;98229.91;7001741;28;20273;-75
2022/12/08 04:17:32;;;;;;;14.30;10.00;;;;;;;4.75;58.39;98250.78;7001219;28;20359;-75
2022/12/08 04:20:53;;;;;;;12.80;9.77;;;;;;;4.81;58.06;98244.69;7001129;28;20366;-75
2022/12/08 04:24:15;;;;;;;12.63;10.13;;;;;;;4.78;58.03;98244.25;7001178;28;20335;-76
2022/12/08 04:27:36;;;;;;;15.43;10.53;;;;;;;4.78;57.77;98239.72;7000870;28;20753;-76
2022/12/08 04:30:58;;;;;;;14.33;10.27;;;;;;;4.68;58.26;98219.63;7001120;28;20785;-76
2022/12/08 04:34:21;;;;;;;15.63;11.10;;;;;;;4.47;58.32;98247.03;7001093;28;20296;-75
2022/12/08 04:37:43;;;;;;;14.10;10.57;;;;;;;4.09;58.94;98239.19;7000526;28;20777;-76
2022/12/08 04:41:04;;;;;;;18.00;11.27;;;;;;;4.28;58.95;98238.69;7000571;28;20240;-75
2022/12/08 04:44:26;;;;;;;15.20;10.67;;;;;;;4.23;59.51;98249.06;7000925;28;20316;-75
2022/12/08 04:47:47;;;;;;;16.20;11.07;;;;;;;4.26;59.27;98254.06;6999579;28;20237;-75
2022/12/08 04:51:14;;;;;;;18.53;11.03;;;;;;;4.25;59.50;98261.22;7001188;28;20269;-75
2022/12/08 04:54:36;;;;;;;14.00;10.37;;;;;;;4.20;59.54;98249.44;7000732;28;20293;-76
2022/12/08 04:57:57;;;;;;;13.73;11.00;;;;;;;4.74;58.61;98242.94;6999668;28;20721;-75
2022/12/08 05:01:19;;;;;;;16.60;10.87;;;;;;;4.46;57.92;98244.53;7000266;28;20232;-75
2022/12/08 05:04:40;;;;;;;21.23;13.57;;;;;;;4.69;57.76;98238.16;7000326;28;20309;-76
2022/12/08 05:08:04;;;;;;;19.73;12.77;;;;;;;4.70;57.26;98213.09;6999650;28;20274;-76
2022/12/08 05:11:25;;;;;;;14.83;10.17;;;;;;;4.78;56.88;98221.00;6999796;28;20244;-78
2022/12/08 05:14:47;;;;;;;13.97;10.53;;;;;;;4.48;57.30;98224.66;6999512;28;20341;-79
2022/12/08 05:18:09;;;;;;;15.37;11.47;;;;;;;4.66;56.99;98219.00;6999938;28;20233;-78
2022/12/08 05:21:30;;;;;;;14.50;10.87;;;;;;;4.55;56.93;98217.59;6999237;28;20547;-79
2022/12/08 05:24:53;;;;;;;17.17;11.57;;;;;;;3.80;58.24;98223.91;6999212;28;20746;-79
2022/12/08 05:28:14;;;;;;;15.20;10.67;;;;;;;3.79;59.63;98234.72;6999685;28;20368;-79
2022/12/08 05:31:36;;;;;;;18.73;11.10;;;;;;;4.05;58.82;98212.03;6999237;28;20292;-78
2022/12/08 05:34:57;;;;;;;19.17;11.13;;;;;;;3.83;58.69;98220.84;6999040;28;20292;-78
2022/12/08 05:38:19;;;;;;;17.23;11.00;;;;;;;3.57;58.69;98225.69;6999239;28;20777;-78
2022/12/08 05:41:42;;;;;;;14.90;10.90;;;;;;;3.45;60.22;98223.59;6999304;28;20311;-78
2022/12/08 05:45:04;;;;;;;15.43;11.27;;;;;;;3.82;59.64;98210.38;7000026;28;20300;-82
2022/12/08 05:48:26;;;;;;;16.13;12.67;;;;;;;4.06;59.15;98223.50;7001390;28;20246;-78
2022/12/08 05:51:47;;;;;;;15.23;11.60;;;;;;;4.06;58.63;98212.84;6987464;28;20202;-82
2022/12/08 05:55:10;;;;;;;18.23;11.77;;;;;;;4.00;58.60;98206.41;6977539;28;20235;-83
2022/12/08 05:58:33;;;;;;;17.00;11.50;;;;;;;4.09;57.60;98202.69;6985482;28;20226;-82
2022/12/08 06:01:54;;;;;;;16.97;11.87;;;;;;;4.08;57.84;98224.19;6985266;28;20252;-82
2022/12/08 06:05:16;;;;;;;16.20;11.43;;;;;;;3.77;59.04;98207.44;6992683;28;20297;-82
2022/12/08 06:08:37;;;;;;;16.77;11.63;;;;;;;3.65;59.03;98193.66;6997335;28;20300;-81
2022/12/08 06:11:59;;;;;;;21.33;12.20;;;;;;;3.56;58.90;98213.38;6993346;28;20225;-81
2022/12/08 06:15:22;;;;;;;18.07;11.83;;;;;;;3.80;58.42;98209.72;6983048;28;20287;-81
2022/12/08 06:18:43;;;;;;;14.53;10.97;;;;;;;3.94;57.60;98180.44;6978595;28;20333;-81
2022/12/08 06:22:05;;;;;;;16.73;11.77;;;;;;;3.58;58.18;98206.03;6982039;28;20252;-82
2022/12/08 06:25:27;;;;;;;16.30;11.37;;;;;;;3.53;59.17;98180.91;6987447;28;20221;-83
2022/12/08 06:28:49;;;;;;;17.30;11.77;;;;;;;3.72;60.07;98138.63;6988337;28;20218;-84
2022/12/08 06:32:12;;;;;;;18.07;11.53;;;;;;;4.17;58.47;98221.28;6983070;28;20259;-86
2022/12/08 06:35:35;;;;;;;17.03;11.73;;;;;;;3.77;58.14;98152.25;7010847;28;20197;-85
2022/12/08 06:38:57;;;;;;;18.00;11.87;;;;;;;4.22;57.71;98210.06;7048221;28;20228;-85
2022/12/08 06:45:57;;;;;;;15.20;11.97;;;;;;;3.20;59.82;98220.22;6977088;28;20274;-82
2022/12/08 06:49:22;;;;;;;17.07;11.03;;;;;;;3.71;58.80;98211.59;6985310;28;20235;-85
2022/12/08 06:52:44;;;;;;;18.83;12.30;;;;;;;3.28;59.34;98192.72;6986883;28;20221;-81
2022/12/08 06:56:13;;;;;;;17.70;11.37;;;;;;;3.62;58.62;98199.34;7004108;28;20269;-86
2022/12/08 06:59:34;;;;;;;15.93;10.73;;;;;;;3.79;58.12;98208.06;7018354;28;20228;-87
2022/12/08 07:02:56;;;;;;;18.50;11.67;;;;;;;3.32;58.20;98154.88;7002336;28;20233;-85
2022/12/08 07:06:22;;;;;;;15.87;11.13;;;;;;;3.69;57.86;98170.13;6995832;28;20217;-86
2022/12/08 07:09:44;;;;;;;15.43;11.17;;;;;;;4.35;56.89;98224.44;6993134;28;20214;-86
2022/12/08 07:13:05;;;;;;;15.97;11.07;;;;;;;4.19;57.24;98208.56;7009843;28;20682;-86
2022/12/08 07:16:27;;;;;;;16.83;12.43;;;;;;;3.93;56.25;98160.13;7009359;28;20225;-86
2022/12/08 07:19:49;;;;;;;14.10;10.47;;;;;;;4.33;56.33;98217.63;7010073;28;20298;-85
2022/12/08 07:23:13;;;;;;;14.43;11.47;;;;;;;3.80;56.74;98234.56;6991004;28;20229;-86
2022/12/08 07:27:06;;;;;;;18.13;11.70;;;;;;;3.70;57.27;98228.63;6990803;28;20595;-85
2022/12/08 07:30:53;;;;;;;16.20;11.27;;;;;;;3.07;58.11;98152.56;6996868;28;20694;-86
2022/12/08 07:34:18;;;;;;;14.50;10.27;;;;;;;3.33;58.22;98182.38;7011325;28;20203;-85
2022/12/08 07:37:51;;;;;;;16.13;11.03;;;;;;;3.50;58.21;98234.56;6988917;28;20230;-85
2022/12/08 07:45:41;;;;;;;14.50;11.17;;;;;;;3.57;58.49;98248.84;6954797;28;20696;-85
2022/12/08 07:49:06;;;;;;;17.17;11.20;;;;;;;3.52;57.46;98240.53;6987323;28;20321;-86
2022/12/08 07:52:28;;;;;;;14.23;10.80;;;;;;;3.80;57.79;98225.72;6987261;28;20199;-85
2022/12/08 07:55:49;;;;;;;16.87;11.50;;;;;;;3.49;58.19;98236.38;6998751;28;20220;-85
2022/12/08 08:03:25;;;;;;;18.87;10.07;;;;;;;3.52;57.35;98157.94;6764297;29;20265;-85
2022/12/08 08:06:56;;;;;;;14.90;10.17;;;;;;;3.99;58.10;98234.09;6796284;28;20209;-86
2022/12/08 08:10:18;;;;;;;16.67;10.67;;;;;;;3.99;57.69;98202.09;6875212;28;20225;-85
2022/12/08 08:13:42;;;;;;;14.27;10.07;;;;;;;3.79;57.48;98163.56;6894539;28;20304;-86
2022/12/08 08:17:05;;;;;;;15.30;10.27;;;;;;;3.68;58.60;98169.34;6898903;28;20199;-84
2022/12/08 08:20:27;;;;;;;15.60;9.87;;;;;;;4.16;58.48;98197.44;6890940;28;20339;-84
2022/12/08 08:23:49;;;;;;;19.23;10.70;;;;;;;4.46;57.85;98213.34;6865341;28;20216;-85
2022/12/08 08:27:11;;;;;;;16.60;11.47;;;;;;;4.32;58.74;98211.44;6865351;28;20209;-81
2022/12/08 08:30:32;;;;;;;15.20;11.53;;;;;;;4.84;58.05;98201.59;6878800;28;20240;-79
2022/12/08 08:33:53;;;;;;;17.30;12.00;;;;;;;7.04;54.80;98199.56;6888496;28;20204;-79
2022/12/08 08:37:17;;;;;;;14.17;11.27;;;;;;;9.03;48.00;98166.25;6871203;28;20818;-82
2022/12/08 08:40:38;;;;;;;14.60;9.67;;;;;;;10.01;45.48;98172.84;6944196;28;20240;-84
2022/12/08 08:44:00;;;;;;;14.57;10.60;;;;;;;9.08;46.64;98201.38;6975908;28;20210;-83
2022/12/08 08:47:22;;;;;;;10.97;9.37;;;;;;;8.66;47.80;98207.22;6974727;28;20340;-82
2022/12/08 08:50:43;;;;;;;14.63;9.57;;;;;;;7.74;49.16;98181.28;6975509;28;20203;-82
2022/12/08 08:54:06;;;;;;;11.57;8.37;;;;;;;7.32;51.30;98197.63;6974909;28;20241;-81
2022/12/08 08:57:28;;;;;;;14.33;9.70;;;;;;;6.92;51.84;98198.44;6974675;28;20367;-84
2022/12/08 09:00:49;;;;;;;12.93;10.23;;;;;;;6.25;54.67;98202.66;6975291;28;20268;-83
2022/12/08 09:04:12;;;;;;;11.33;9.57;;;;;;;6.54;53.98;98196.31;6981065;28;20226;-84
2022/12/08 09:07:33;;;;;;;11.97;9.33;;;;;;;6.51;54.53;98196.69;6984917;28;20661;-84
2022/12/08 09:10:56;;;;;;;13.33;9.47;;;;;;;7.19;53.18;98189.50;6981605;28;20206;-84
2022/12/08 09:14:18;;;;;;;13.13;9.33;;;;;;;7.10;53.05;98193.41;6976681;28;20206;-82
2022/12/08 09:17:39;;;;;;;12.67;9.80;;;;;;;6.58;54.12;98178.81;6973857;28;20289;-82
2022/12/08 09:21:04;;;;;;;10.03;8.67;;;;;;;7.36;52.54;98182.78;6997486;28;20232;-79
2022/12/08 09:24:26;;;;;;;9.77;8.17;;;;;;;7.26;52.90;98178.84;6974561;28;20203;-80
2022/12/08 09:27:49;;;;;;;10.77;9.27;;;;;;;7.45;53.14;98170.03;6971909;28;20585;-80
2022/12/08 09:31:10;;;;;;;13.07;9.37;;;;;;;7.18;53.48;98158.38;6972298;28;20212;-80
2022/12/08 09:34:32;;;;;;;11.60;8.73;;;;;;;7.61;52.41;98186.59;6975082;28;20253;-81
2022/12/08 09:37:53;;;;;;;10.93;8.33;;;;;;;8.02;51.21;98173.09;7001981;28;20234;-81
2022/12/08 09:41:17;;;;;;;10.03;8.43;;;;;;;8.16;50.36;98164.84;7005634;28;20317;-80
2022/12/08 09:44:56;;;;;;;12.17;9.00;;;;;;;8.02;50.77;98173.09;7005264;28;20205;-80
2022/12/08 09:48:19;;;;;;;10.07;8.33;;;;;;;8.39;50.43;98172.53;7005096;28;20226;-79
2022/12/08 09:51:42;;;;;;;12.97;8.33;;;;;;;8.68;48.89;98167.56;7011098;28;20204;-81
2022/12/08 09:55:12;;;;;;;9.20;7.50;;;;;;;8.58;49.60;98169.84;7005581;28;20248;-79
2022/12/08 09:58:41;;;;;;;8.40;7.57;;;;;;;8.93;48.19;98150.53;7004743;28;20249;-80
2022/12/08 10:02:13;;;;;;;11.27;7.50;;;;;;;8.94;47.54;98146.00;6993669;28;20207;-80
2022/12/08 10:05:37;;;;;;;8.93;7.10;;;;;;;9.35;47.37;98141.94;6998328;28;20615;-80
2022/12/08 10:09:09;;;;;;;10.73;7.60;;;;;;;9.21;47.06;98142.22;7002563;28;20319;-81
2022/12/08 10:12:35;;;;;;;8.97;7.20;;;;;;;9.23;47.03;98126.69;6992616;28;20664;-81
2022/12/08 10:16:08;;;;;;;11.57;7.47;;;;;;;9.35;47.01;98127.66;6999125;28;20829;-80
2022/12/08 10:19:31;;;;;;;7.80;7.00;;;;;;;9.70;46.15;98127.03;6978653;28;20825;-81
2022/12/08 10:22:56;;;;;;;8.23;6.33;;;;;;;9.93;45.75;98110.34;6995224;28;20274;-82
2022/12/08 10:26:19;;;;;;;7.73;6.53;;;;;;;10.20;45.60;98117.19;6995456;28;20241;-80
2022/12/08 10:29:41;;;;;;;8.60;6.67;;;;;;;10.22;45.20;98107.06;7004728;28;20289;-81
2022/12/08 10:33:02;;;;;;;9.77;7.33;;;;;;;10.57;44.14;98103.63;6996270;28;20291;-81
2022/12/08 10:36:42;;;;;;;8.70;6.77;;;;;;;10.79;43.38;98106.72;6981988;28;20356;-80
2022/12/08 10:40:10;;;;;;;8.17;6.10;;;;;;;10.80;43.30;98098.41;6998876;28;20391;-81
2022/12/08 10:43:32;;;;;;;10.20;7.00;;;;;;;10.91;42.98;98089.56;6983742;28;20645;-80
2022/12/08 10:46:54;;;;;;;6.47;5.77;;;;;;;10.96;43.16;98096.97;6979412;28;20672;-80
2022/12/08 10:50:21;;;;;;;7.50;6.33;;;;;;;10.23;43.77;98097.94;6981343;28;20253;-82
2022/12/08 10:53:46;;;;;;;7.57;6.17;;;;;;;10.89;43.33;98078.19;6978938;28;20693;-83
2022/12/08 10:57:20;;;;;;;9.50;7.67;;;;;;;10.14;45.36;98070.44;6983049;28;20706;-83
2022/12/08 11:00:44;;;;;;;8.70;7.27;;;;;;;9.86;44.72;98083.47;6982771;28;20263;-88
2022/12/08 11:04:12;;;;;;;12.10;9.60;;;;;;;9.62;46.17;98043.88;6977611;28;20206;-83
2022/12/08 11:07:33;;;;;;;6.27;5.60;;;;;;;11.07;43.34;98055.78;6978818;28;20229;-82
2022/12/08 11:10:56;;;;;;;7.03;6.00;;;;;;;11.62;41.59;98062.78;6980837;28;20721;-77
2022/12/08 11:14:22;;;;;;;5.93;5.30;;;;;;;11.31;41.06;98044.88;6988707;28;20559;-82
2022/12/08 11:17:45;;;;;;;8.00;5.80;;;;;;;11.67;40.56;98034.00;6995102;28;20218;-81
2022/12/08 11:21:11;;;;;;;6.27;5.67;;;;;;;10.68;41.84;98035.50;6996020;28;20697;-82
2022/12/08 11:24:35;;;;;;;6.23;5.63;;;;;;;10.65;42.52;97943.47;6997216;28;20202;-84
2022/12/08 11:28:00;;;;;;;6.63;5.37;;;;;;;11.44;41.36;98006.91;6986970;28;20225;-83
2022/12/08 11:31:28;;;;;;;6.30;4.63;;;;;;;11.56;41.56;98028.56;7013300;28;20210;-82
2022/12/08 11:34:52;;;;;;;6.70;5.40;;;;;;;11.61;40.17;97947.72;7013589;28;20208;-82
2022/12/08 11:38:20;;;;;;;9.03;5.47;;;;;;;11.27;41.29;98003.22;6985299;28;20247;-84
2022/12/08 11:41:47;;;;;;;6.57;5.40;;;;;;;11.51;41.53;98017.63;7001075;28;20287;-83
2022/12/08 11:45:14;;;;;;;7.60;5.90;;;;;;;11.77;40.52;98017.25;7000682;28;20264;-84
2022/12/08 11:48:40;;;;;;;6.00;5.40;;;;;;;11.56;41.41;98015.06;6997346;28;20240;-84
2022/12/08 11:52:11;;;;;;;7.33;6.10;;;;;;;11.81;41.26;97992.25;6993213;28;20212;-83
2022/12/08 11:55:38;;;;;;;7.27;6.13;;;;;;;11.66;41.12;98020.75;6988345;28;20210;-84
2022/12/08 11:59:01;;;;;;;8.73;6.20;;;;;;;11.99;41.37;98011.06;6990687;28;20577;-85
2022/12/08 12:02:26;;;;;;;7.83;6.63;;;;;;;12.12;41.36;98005.44;6979730;28;20253;-85
2022/12/08 12:05:59;;;;;;;9.10;7.33;;;;;;;12.24;40.76;97981.94;6979993;28;20756;-85
2022/12/08 12:09:31;;;;;;;6.67;5.97;;;;;;;11.73;40.86;98003.38;6983101;28;20252;-85
2022/12/08 12:13:02;;;;;;;10.57;5.70;;;;;;;11.37;41.83;98014.28;6986230;28;20213;-85
2022/12/08 12:16:57;;;;;;;7.33;5.83;;;;;;;11.01;41.94;98000.03;6987786;28;20212;-86
2022/12/08 12:20:24;;;;;;;7.33;5.93;;;;;;;11.13;42.31;97998.22;6944882;28;20252;-85
2022/12/08 12:23:48;;;;;;;6.10;5.50;;;;;;;11.17;42.90;98002.13;6985890;28;20226;-84
2022/12/08 12:27:22;;;;;;;5.90;5.30;;;;;;;11.19;41.85;97992.75;6984401;28;20676;-84
2022/12/08 12:30:54;;;;;;;7.00;5.27;;;;;;;11.13;41.67;97995.53;6983079;28;20243;-85
2022/12/08 12:34:18;;;;;;;7.17;5.70;;;;;;;11.69;41.07;97986.00;6984182;28;20216;-85
2022/12/08 12:37:42;;;;;;;6.53;5.80;;;;;;;11.59;41.16;97987.63;6983118;28;20291;-85
2022/12/08 12:41:05;;;;;;;5.90;5.30;;;;;;;11.10;41.64;97969.03;6985971;28;20801;-84
2022/12/08 12:44:44;;;;;;;6.70;5.50;;;;;;;11.18;41.55;97974.91;6986441;28;20225;-89
2022/12/08 12:48:20;;;;;;;7.50;6.07;;;;;;;10.98;41.90;97957.38;6986199;28;20240;-85
2022/12/08 12:51:45;;;;;;;8.10;6.30;;;;;;;11.26;42.37;97965.66;6987516;28;20212;-83
2022/12/08 12:55:24;;;;;;;6.90;5.97;;;;;;;11.18;41.95;97950.63;6986390;28;20213;-86
2022/12/08 12:58:49;;;;;;;6.20;5.67;;;;;;;11.03;41.94;97960.19;6971680;28;20615;-83
2022/12/08 13:02:23;;;;;;;6.43;5.57;;;;;;;11.04;41.14;97959.16;6981553;28;20230;-82
2022/12/08 13:05:50;;;;;;;6.77;5.80;;;;;;;10.86;41.45;97926.81;6979649;28;20689;-84
2022/12/08 13:09:24;;;;;;;6.33;5.20;;;;;;;10.85;41.49;97949.41;6977094;28;20261;-83
2022/12/08 13:13:02;;;;;;;7.63;5.93;;;;;;;10.85;41.28;97944.88;6979135;28;20314;-82
2022/12/08 13:16:28;;;;;;;6.27;5.53;;;;;;;10.64;40.89;97941.81;6979818;28;20202;-83
2022/12/08 13:19:57;;;;;;;6.00;5.40;;;;;;;10.24;42.01;97941.47;6988267;28;20441;-84
2022/12/08 13:23:43;;;;;;;6.73;5.47;;;;;;;10.32;42.18;97951.09;6982084;28;20252;-82
2022/12/08 13:27:32;;;;;;;6.20;5.53;;;;;;;10.07;43.05;97948.47;7006790;28;20307;-84
2022/12/08 13:30:57;;;;;;;6.73;5.50;;;;;;;10.09;42.08;97914.06;7033315;28;20660;-84
2022/12/08 13:34:28;;;;;;;6.20;5.07;;;;;;;10.45;42.17;97938.31;7011386;28;20240;-84
2022/12/08 13:37:51;;;;;;;6.20;5.00;;;;;;;10.40;42.62;97948.13;7001091;28;20229;-83
2022/12/08 13:41:18;;;;;;;6.93;6.07;;;;;;;9.68;42.84;97870.75;7002932;28;20217;-82
2022/12/08 13:44:43;;;;;;;10.30;6.30;;;;;;;10.10;43.35;97931.06;6992097;28;20198;-82
2022/12/08 13:48:16;;;;;;;8.93;6.10;;;;;;;10.09;42.71;97932.91;6981680;28;20260;-81
2022/12/08 13:51:41;;;;;;;6.07;5.30;;;;;;;9.91;42.67;97887.09;6983232;28;20213;-82
2022/12/08 13:55:03;;;;;;;7.57;5.63;;;;;;;10.14;42.65;97932.25;6979102;28;20217;-82
2022/12/08 13:58:27;;;;;;;10.50;6.37;;;;;;;10.15;43.18;97931.22;7029147;28;20307;-81
2022/12/08 14:01:50;;;;;;;6.87;5.87;;;;;;;9.84;43.83;97929.41;7031651;28;20236;-81
2022/12/08 14:05:14;;;;;;;7.80;5.27;;;;;;;9.97;43.51;97936.53;7023109;28;20209;-82
2022/12/08 14:08:35;;;;;;;6.87;6.10;;;;;;;9.84;44.02;97912.44;7030962;28;20250;-81
2022/12/08 14:11:59;;;;;;;6.67;5.97;;;;;;;9.99;43.88;97937.16;7032901;28;20694;-82
2022/12/08 14:15:21;;;;;;;6.13;5.47;;;;;;;9.65;43.72;97910.75;6996050;28;20223;-81
2022/12/08 14:18:42;;;;;;;7.20;5.00;;;;;;;9.94;43.29;97937.81;6984265;28;20767;-82
2022/12/08 14:22:11;;;;;;;6.83;5.50;;;;;;;10.12;43.43;97939.72;6997741;28;20235;-83
2022/12/08 14:25:36;;;;;;;7.87;5.90;;;;;;;9.34;44.35;97913.50;6981510;28;20259;-83
2022/12/08 14:28:57;;;;;;;7.73;6.93;;;;;;;9.69;44.51;97944.25;6994121;28;20255;-83
2022/12/08 14:32:22;;;;;;;7.97;6.27;;;;;;;10.03;44.04;97946.44;6989112;28;20344;-83
2022/12/08 14:35:49;;;;;;;10.03;6.33;;;;;;;9.86;44.02;97918.44;6996670;28;20199;-83
2022/12/08 14:39:12;;;;;;;6.47;5.53;;;;;;;9.80;43.29;97947.03;7012085;28;20272;-83
2022/12/08 14:42:42;;;;;;;8.80;5.73;;;;;;;9.71;43.78;97926.00;7013654;28;20225;-83
2022/12/08 14:46:06;;;;;;;15.07;7.27;;;;;;;10.01;43.08;97948.50;7012707;28;20195;-83
2022/12/08 14:49:32;;;;;;;8.77;6.03;;;;;;;9.67;43.15;97938.25;7013810;28;20251;-83
2022/12/08 14:52:53;;;;;;;7.67;6.17;;;;;;;10.12;42.16;97934.34;6997923;28;20213;-82
2022/12/08 14:56:20;;;;;;;7.83;6.00;;;;;;;8.56;45.01;97954.31;6983075;28;20216;-83
2022/12/08 14:59:43;;;;;;;7.50;6.70;;;;;;;8.99;45.51;97928.44;6984163;28;20273;-83
2022/12/08 15:03:07;;;;;;;9.20;5.10;;;;;;;9.16;44.45;97916.13;6981720;28;20230;-83
2022/12/08 15:06:29;;;;;;;6.53;5.50;;;;;;;9.45;43.69;97939.69;6998513;28;20211;-82
2022/12/08 15:10:08;;;;;;;7.93;5.27;;;;;;;9.05;44.20;97928.38;7000393;28;20249;-82
2022/12/08 15:13:32;;;;;;;8.43;5.23;;;;;;;9.57;44.07;97943.34;6987221;28;20218;-82
2022/12/08 15:16:54;;;;;;;7.20;5.63;;;;;;;9.81;42.97;97926.34;6985886;28;20207;-82
2022/12/08 15:20:27;;;;;;;8.60;5.80;;;;;;;9.45;44.52;97940.50;6985764;28;20354;-82
2022/12/08 15:23:50;;;;;;;9.20;6.47;;;;;;;9.60;44.20;97922.19;6989421;28;20224;-83
2022/12/08 15:27:16;;;;;;;6.87;6.17;;;;;;;9.46;43.84;97944.03;7000113;28;20204;-82
2022/12/08 15:30:42;;;;;;;8.87;7.70;;;;;;;9.63;43.39;97937.88;6996323;28;20195;-81
2022/12/08 15:34:07;;;;;;;5.93;5.33;;;;;;;9.68;43.33;97946.13;7003226;28;20777;-82
2022/12/08 15:37:29;;;;;;;6.87;5.73;;;;;;;9.53;43.58;97939.41;6994914;28;20230;-82
2022/12/08 15:40:51;;;;;;;8.70;5.70;;;;;;;9.59;43.69;97927.78;7007576;28;20202;-82
2022/12/08 15:44:12;;;;;;;5.77;5.27;;;;;;;9.26;43.93;97930.72;7001468;28;20271;-82
2022/12/08 15:47:35;;;;;;;5.70;4.60;;;;;;;9.16;44.15;97940.31;6990376;28;20722;-82
2022/12/08 15:50:57;;;;;;;5.77;4.70;;;;;;;9.19;43.81;97891.47;6998898;28;20223;-82
2022/12/08 15:54:19;;;;;;;5.50;4.73;;;;;;;9.39;43.10;97919.06;6989242;28;20237;-81
2022/12/08 15:57:41;;;;;;;6.70;4.63;;;;;;;9.49;43.30;97932.81;6995753;28;20229;-82
2022/12/08 16:01:02;;;;;;;5.40;4.83;;;;;;;9.36;43.64;97924.84;6993876;28;20230;-82
2022/12/08 16:04:26;;;;;;;7.53;4.80;;;;;;;9.40;43.79;97926.09;7003403;28;20324;-82
2022/12/08 16:07:47;;;;;;;7.00;5.00;;;;;;;9.09;44.30;97923.41;7005770;28;20232;-81
2022/12/08 16:14:48;;;;;;;6.23;4.97;;;;;;;9.25;43.80;97930.94;6997473;28;20193;-81
2022/12/08 16:18:15;;;;;;;7.37;5.73;;;;;;;9.27;44.59;97927.00;6985821;28;20745;-82
2022/12/08 16:21:37;;;;;;;6.10;5.17;;;;;;;9.45;44.41;97929.75;6985463;28;20808;-77